Forside
METAR-TAF:

METAR-TAF

Lufthavne :

Richard I. Bong Airport

Superior, Wisconsin, USA

Breddekreds: 46-41-23N, længdekreds: 092-05-41W, højde: 205 m

Aktuelle vejr

Denne rapport blev lavet for 22 minutter siden, kl. 09:35 UTC
Vind stille
Temperatur -2°C
Fugtighed 100%
Tryk 1020 hPa
Sigt: 16.1 km
skyfri

METAR: KSUW 230935Z AUTO 00000KT 10SM CLR M02/M02 A3013 RMK AO2 T10201020

Tid: 04:57 (09:57 UTC)


TAF: fraværende

Vejrobservationer og prognoser fra mere end 4000 lufthavne (METAR og TAF).

De gule og røde prikker repræsenterer de meteorologiske stationer.

Flyt musen over at se navnet på stationen.

Så klik over at se vejr observationer og prognoser.

At skifte det kort: Klik på de grønne knapper med et sort kors for at zoome ind; på den grønne knap med en bindestreg for at zoome ud; eller på de grønne pile for tilstødende kort.


METAR-TAF: